Time;durP1;ratioP1;P1;durP2;ratioP2;P2;SDS_P1;SDS_P2;PMS_P1;PMS_P2;Temp;Humidity;BMP_temperature;BMP_pressure;BME280_temperature;BME280_humidity;BME280_pressure;Samples;Min_cycle;Max_cycle;Signal;HPM_P1;HPM_P2
2022/06/06 00:00:05;;;;;;;11.57;6.53;;;;;;;23.04;60.73;97944.94;5391792;26;20060;-79
2022/06/06 00:02:32;;;;;;;11.32;6.03;;;;;;;23.45;58.69;97938.34;5391750;26;20052;-80
2022/06/06 00:04:59;;;;;;;10.77;5.47;;;;;;;23.07;59.66;97934.97;5391630;26;20403;-80
2022/06/06 00:07:26;;;;;;;12.00;6.53;;;;;;;22.98;60.23;97929.75;5391780;26;20063;-80
2022/06/06 00:09:53;;;;;;;11.25;6.78;;;;;;;23.02;60.73;97931.09;5391619;26;20115;-80
2022/06/06 00:12:23;;;;;;;13.02;6.05;;;;;;;23.18;60.44;97917.28;5391860;26;20060;-80
2022/06/06 00:14:50;;;;;;;12.48;7.37;;;;;;;23.29;59.79;97931.09;5391833;26;20116;-80
2022/06/06 00:17:17;;;;;;;14.35;7.62;;;;;;;23.05;60.86;97936.06;5391440;26;20054;-80
2022/06/06 00:19:44;;;;;;;14.30;7.60;;;;;;;22.49;63.38;97950.94;5391593;26;20423;-80
2022/06/06 00:22:11;;;;;;;12.15;7.15;;;;;;;22.73;62.91;97963.59;5391850;26;20109;-80
2022/06/06 00:24:38;;;;;;;15.18;8.25;;;;;;;23.21;62.84;98009.13;5391610;26;20111;-80
2022/06/06 00:27:05;;;;;;;13.52;7.78;;;;;;;22.96;68.45;98060.59;5391695;26;20115;-80
2022/06/06 00:29:35;;;;;;;13.50;6.18;;;;;;;22.51;67.34;98062.03;5391254;26;20075;-80
2022/06/06 00:34:51;;;;;;;11.15;6.25;;;;;;;21.14;67.56;98052.34;5392039;26;20082;-79
2022/06/06 00:37:24;;;;;;;13.77;6.40;;;;;;;20.51;70.22;98110.06;5391788;26;20054;-79
2022/06/06 00:39:52;;;;;;;16.08;8.02;;;;;;;20.93;66.27;98131.06;5371682;26;20079;-79
2022/06/06 00:42:24;;;;;;;14.70;7.62;;;;;;;20.67;71.07;98128.81;5391067;26;20072;-80
2022/06/06 00:45:16;;;;;;;12.27;6.72;;;;;;;21.36;63.08;98123.88;5391817;26;20130;-80
2022/06/06 00:47:45;;;;;;;15.02;7.53;;;;;;;21.53;64.88;98161.00;5391575;26;20048;-80
2022/06/06 00:50:18;;;;;;;13.93;7.53;;;;;;;21.96;61.31;98176.50;5391512;26;20466;-80
2022/06/06 00:52:48;;;;;;;18.25;7.93;;;;;;;22.25;61.82;98191.53;5391585;26;20115;-79
2022/06/06 00:55:19;;;;;;;14.93;8.30;;;;;;;22.64;62.02;98159.03;5371497;26;20108;-80
2022/06/06 00:57:52;;;;;;;20.33;8.85;;;;;;;21.16;69.33;98148.34;5391686;26;20051;-80
2022/06/06 01:00:21;;;;;;;28.80;11.40;;;;;;;21.42;71.64;98138.28;5371460;26;20064;-80
2022/06/06 01:02:52;;;;;;;14.63;8.45;;;;;;;23.27;65.64;98148.87;5391601;26;20131;-80
2022/06/06 01:05:20;;;;;;;16.85;8.35;;;;;;;22.80;66.94;98179.53;5391625;26;20049;-80
2022/06/06 01:07:48;;;;;;;21.45;8.60;;;;;;;22.48;69.32;98185.06;5371545;26;20119;-80
2022/06/06 01:10:16;;;;;;;17.87;8.65;;;;;;;21.31;72.97;98186.44;5391621;26;20380;-80
2022/06/06 01:12:47;;;;;;;14.18;8.55;;;;;;;22.29;69.37;98196.38;5391368;26;20070;-80
2022/06/06 01:15:16;;;;;;;16.23;9.48;;;;;;;23.36;67.04;98218.28;5371886;26;20061;-80
2022/06/06 01:17:59;;;;;;;14.40;8.20;;;;;;;23.51;66.53;98247.66;5371396;26;20070;-80
2022/06/06 01:20:48;;;;;;;12.82;7.20;;;;;;;23.75;64.75;98252.47;5371162;26;20114;-80
2022/06/06 01:23:31;;;;;;;13.00;7.18;;;;;;;23.27;66.18;98251.56;5371406;26;20122;-80
2022/06/06 01:26:02;;;;;;;16.70;7.97;;;;;;;24.06;63.76;98253.06;5391671;26;20071;-80
2022/06/06 01:28:41;;;;;;;14.87;6.82;;;;;;;22.81;68.72;98242.53;5391509;26;20047;-80
2022/06/06 01:31:14;;;;;;;18.12;7.40;;;;;;;23.36;65.89;98215.66;5391515;26;20115;-80
2022/06/06 01:33:55;;;;;;;14.63;7.22;;;;;;;22.52;69.06;98187.28;5371585;26;20151;-80
2022/06/06 01:36:26;;;;;;;11.48;6.75;;;;;;;21.77;72.58;98176.41;5391647;26;20525;-80
2022/06/06 01:38:55;;;;;;;13.80;7.18;;;;;;;21.86;71.18;98158.06;5391588;26;20533;-80
2022/06/06 01:41:48;;;;;;;12.32;6.97;;;;;;;20.98;75.20;98165.63;5371372;26;20119;-80
2022/06/06 01:44:45;;;;;;;14.30;7.40;;;;;;;20.53;76.69;98178.94;5329819;26;20059;-80
2022/06/06 01:47:20;;;;;;;14.02;7.18;;;;;;;19.55;80.29;98177.94;5391576;26;20107;-80
2022/06/06 01:49:47;;;;;;;13.02;7.30;;;;;;;20.11;78.79;98170.91;5371371;26;20055;-80
2022/06/06 01:52:16;;;;;;;13.68;7.87;;;;;;;20.91;75.86;98170.53;5371347;26;20064;-80
2022/06/06 01:54:43;;;;;;;19.45;8.05;;;;;;;20.98;76.75;98173.50;5391277;26;20122;-80
2022/06/06 01:57:13;;;;;;;12.23;7.43;;;;;;;21.70;73.55;98175.31;5371344;26;20477;-80
2022/06/06 01:59:41;;;;;;;12.25;7.55;;;;;;;22.82;69.29;98177.59;5371245;26;20051;-80
2022/06/06 02:02:09;;;;;;;13.05;6.80;;;;;;;21.50;74.54;98169.13;5391223;26;20056;-80
2022/06/06 02:04:35;;;;;;;12.85;7.70;;;;;;;22.51;71.15;98167.22;5371477;26;20126;-80
2022/06/06 02:07:03;;;;;;;13.55;7.78;;;;;;;22.89;68.57;98159.50;5391507;26;20058;-80
2022/06/06 02:09:32;;;;;;;14.50;7.95;;;;;;;21.50;74.33;98151.59;5371008;26;20055;-80
2022/06/06 02:12:02;;;;;;;13.93;8.10;;;;;;;19.27;81.75;98164.37;5391495;26;20111;-80
2022/06/06 02:14:29;;;;;;;13.75;7.78;;;;;;;19.88;81.78;98191.06;5391649;26;20118;-80
2022/06/06 02:16:56;;;;;;;13.18;7.65;;;;;;;22.03;73.35;98217.03;5390992;26;20052;-79
2022/06/06 02:19:24;;;;;;;13.10;7.53;;;;;;;22.25;72.49;98233.59;5391477;26;20040;-79
2022/06/06 02:21:50;;;;;;;14.48;7.57;;;;;;;22.00;72.68;98240.94;5392172;26;20101;-79
2022/06/06 02:24:17;;;;;;;12.50;6.82;;;;;;;22.76;69.46;98264.97;5391551;26;20429;-79
2022/06/06 02:26:44;;;;;;;13.40;7.35;;;;;;;22.75;68.38;98276.44;5391363;26;20115;-79
2022/06/06 02:29:11;;;;;;;13.35;7.35;;;;;;;22.88;68.18;98284.97;5391024;26;20067;-79
2022/06/06 02:31:38;;;;;;;13.35;7.68;;;;;;;22.05;71.83;98282.59;5391355;26;20700;-79
2022/06/06 02:34:06;;;;;;;13.68;8.10;;;;;;;22.61;70.57;98282.94;5391376;26;20443;-79
2022/06/06 02:36:34;;;;;;;12.90;6.82;;;;;;;22.82;69.89;98269.66;5391197;26;20078;-79
2022/06/06 02:39:03;;;;;;;11.23;6.47;;;;;;;22.94;69.69;98262.50;5370904;26;20127;-79
2022/06/06 02:41:30;;;;;;;12.93;6.70;;;;;;;21.00;75.40;98242.38;5391475;26;20110;-79
2022/06/06 02:43:57;;;;;;;11.75;6.72;;;;;;;21.25;75.51;98239.38;5371002;26;20063;-79
2022/06/06 02:46:24;;;;;;;13.38;7.18;;;;;;;21.47;74.37;98235.84;5391401;26;20074;-79
2022/06/06 02:48:51;;;;;;;13.65;6.57;;;;;;;22.43;71.21;98245.09;5391160;26;20056;-79
2022/06/06 02:51:18;;;;;;;15.45;6.75;;;;;;;22.93;69.37;98252.97;5391068;26;20056;-79
2022/06/06 02:53:45;;;;;;;12.82;6.87;;;;;;;23.84;65.55;98255.06;5391228;26;20400;-79
2022/06/06 02:56:12;;;;;;;15.65;6.85;;;;;;;23.67;66.00;98250.53;5391177;26;20048;-79
2022/06/06 02:58:40;;;;;;;10.48;6.18;;;;;;;23.59;66.29;98237.25;5390904;26;20088;-79
2022/06/06 03:01:09;;;;;;;12.50;6.15;;;;;;;23.33;67.02;98222.03;5391042;26;20108;-79
2022/06/06 03:03:37;;;;;;;10.63;6.00;;;;;;;22.21;70.85;98215.44;5370972;26;20123;-79
2022/06/06 03:06:05;;;;;;;11.27;5.62;;;;;;;21.52;74.12;98204.78;5371396;26;20116;-79
2022/06/06 03:08:54;;;;;;;13.38;6.12;;;;;;;22.00;72.61;98204.16;5391847;26;20410;-79
2022/06/06 03:11:27;;;;;;;12.45;6.60;;;;;;;21.61;74.36;98184.81;5371795;26;20080;-79
2022/06/06 03:14:03;;;;;;;11.82;6.00;;;;;;;21.81;73.68;98170.78;5392008;26;20102;-79
2022/06/06 03:23:18;;;;;;;12.40;6.35;;;;;;;21.02;77.32;98167.03;5374830;26;20064;-79
2022/06/06 03:25:56;;;;;;;13.70;6.60;;;;;;;21.91;74.04;98170.81;5371746;26;20063;-79
2022/06/06 03:28:32;;;;;;;11.15;6.25;;;;;;;22.76;70.92;98173.75;5371696;26;20487;-79
2022/06/06 03:31:11;;;;;;;11.25;6.03;;;;;;;21.46;76.35;98162.47;5392062;26;20064;-79
2022/06/06 03:33:59;;;;;;;13.48;6.78;;;;;;;21.95;73.67;98164.31;5371752;26;20068;-79
2022/06/06 03:37:01;;;;;;;11.98;5.87;;;;;;;22.20;71.85;98153.34;5392020;26;20090;-79
2022/06/06 03:39:28;;;;;;;10.85;5.87;;;;;;;21.67;73.45;98135.19;5345954;26;20068;-79
2022/06/06 03:42:10;;;;;;;12.37;6.90;;;;;;;20.91;76.47;98131.19;5391718;26;20044;-79
2022/06/06 03:45:06;;;;;;;14.13;7.28;;;;;;;20.48;79.22;98121.62;5372073;26;20131;-79
2022/06/06 03:47:42;;;;;;;12.30;6.45;;;;;;;20.42;79.26;98122.16;5371881;26;20067;-79
2022/06/06 03:50:29;;;;;;;14.90;7.43;;;;;;;18.78;86.47;98123.59;5391868;26;20115;-79
2022/06/06 03:53:00;;;;;;;14.32;7.80;;;;;;;18.83;87.92;98125.06;5392067;26;20047;-79
2022/06/06 03:55:50;;;;;;;15.65;6.87;;;;;;;19.24;85.72;98119.28;5391642;26;20065;-79
2022/06/06 03:58:18;;;;;;;13.95;7.47;;;;;;;19.57;84.06;98115.88;5371811;26;20458;-79
2022/06/06 04:00:46;;;;;;;12.35;6.85;;;;;;;19.67;82.77;98129.06;5371711;26;20055;-79
2022/06/06 04:03:15;;;;;;;15.95;6.62;;;;;;;19.14;82.91;98134.88;5371882;26;20039;-79
2022/06/06 04:05:43;;;;;;;12.43;7.07;;;;;;;18.12;87.32;98145.88;5391883;26;20401;-79
2022/06/06 04:08:10;;;;;;;13.23;6.60;;;;;;;17.87;90.51;98143.34;5391578;26;20060;-79
2022/06/06 04:10:53;;;;;;;12.88;7.50;;;;;;;18.89;86.39;98148.13;5391864;26;20071;-80
2022/06/06 04:13:45;;;;;;;15.93;8.02;;;;;;;18.96;86.82;98146.72;5391692;26;20118;-80
2022/06/06 04:16:44;;;;;;;14.10;8.57;;;;;;;18.70;88.56;98149.47;5379878;26;20413;-80
2022/06/06 04:19:27;;;;;;;15.02;8.30;;;;;;;19.29;86.15;98148.53;5391523;26;20071;-80
2022/06/06 04:22:21;;;;;;;14.30;7.90;;;;;;;20.01;83.50;98151.66;5391688;26;20112;-80
2022/06/06 04:25:10;;;;;;;16.08;8.35;;;;;;;21.24;77.73;98164.25;5371528;26;20107;-80
2022/06/06 04:28:07;;;;;;;15.32;7.68;;;;;;;21.28;77.68;98180.63;5391777;26;20734;-80
2022/06/06 04:31:07;;;;;;;14.32;8.40;;;;;;;21.82;75.13;98182.94;5371360;26;20456;-80
2022/06/06 04:34:11;;;;;;;12.75;7.85;;;;;;;20.74;78.85;98173.75;5345760;26;20092;-80
2022/06/06 04:37:09;;;;;;;12.40;7.50;;;;;;;21.15;76.87;98166.81;5376083;26;20095;-80
2022/06/06 04:39:39;;;;;;;;;;;;;;;20.76;78.19;98163.94;5371698;26;20125;-80
2022/06/06 04:42:13;;;;;;;14.32;7.43;;;;;;;19.93;81.64;98159.28;5391843;26;20345;-80
2022/06/06 04:45:01;;;;;;;13.18;7.25;;;;;;;20.93;77.11;98159.91;5391716;26;20062;-80
2022/06/06 04:47:38;;;;;;;12.02;7.12;;;;;;;21.23;75.92;98165.22;5391617;26;20047;-80
2022/06/06 04:50:06;;;;;;;;;;;;;;;22.06;70.76;98163.38;5391757;26;20190;-80
2022/06/06 04:52:35;;;;;;;13.05;6.78;;;;;;;22.32;70.57;98169.81;5391841;26;20010;-80
2022/06/06 04:55:05;;;;;;;11.90;6.68;;;;;;;22.62;68.53;98170.69;5391688;26;20103;-80
2022/06/06 04:57:34;;;;;;;12.18;7.05;;;;;;;22.23;68.63;98173.28;5391551;26;20074;-80
2022/06/06 05:00:04;;;;;;;11.98;6.30;;;;;;;22.93;67.25;98181.91;5391590;26;20064;-80
2022/06/06 05:02:33;;;;;;;12.90;6.47;;;;;;;23.42;65.67;98180.03;5391855;26;20478;-80
2022/06/06 05:05:01;;;;;;;13.07;6.78;;;;;;;23.90;64.30;98183.34;5392368;26;20108;-80
2022/06/06 05:07:53;;;;;;;12.57;6.22;;;;;;;23.88;65.18;98184.47;5392081;26;20110;-80
2022/06/06 05:10:28;;;;;;;10.98;5.65;;;;;;;23.19;67.28;98188.28;5391656;26;20116;-80
2022/06/06 05:13:26;;;;;;;11.45;6.28;;;;;;;23.45;65.67;98185.00;5371395;26;20080;-80
2022/06/06 05:16:20;;;;;;;9.60;5.82;;;;;;;23.21;66.33;98196.03;5391213;26;20131;-80
2022/06/06 05:19:15;;;;;;;12.75;6.15;;;;;;;23.75;66.10;98189.25;5391377;26;20079;-80
2022/06/06 05:22:08;;;;;;;9.57;5.28;;;;;;;24.70;62.56;98202.87;5391635;26;20063;-80
2022/06/06 05:24:52;;;;;;;14.60;5.37;;;;;;;26.29;55.38;98213.19;5371546;26;20083;-80
2022/06/06 05:27:43;;;;;;;11.02;5.60;;;;;;;27.77;51.62;98228.19;5371949;26;20105;-81
2022/06/06 05:30:45;;;;;;;9.30;4.95;;;;;;;28.06;50.05;98224.94;5391484;26;20364;-81
2022/06/06 05:33:51;;;;;;;10.43;4.80;;;;;;;27.13;51.10;98238.69;5331891;26;20059;-81
2022/06/06 05:36:45;;;;;;;11.20;4.57;;;;;;;27.28;50.62;98242.31;5277531;27;20107;-81
2022/06/06 05:39:31;;;;;;;8.25;4.22;;;;;;;27.34;49.89;98241.66;5259404;27;20101;-80
2022/06/06 05:42:16;;;;;;;9.43;4.60;;;;;;;26.31;52.99;98250.03;5367937;26;20063;-80
2022/06/06 05:45:08;;;;;;;10.00;4.60;;;;;;;26.40;52.74;98244.66;5391420;26;20052;-80
2022/06/06 05:47:48;;;;;;;9.18;4.62;;;;;;;26.37;53.46;98246.78;5391323;26;20490;-80
2022/06/06 05:50:24;;;;;;;9.70;4.50;;;;;;;26.09;53.37;98249.63;5391328;26;20074;-80
2022/06/06 05:53:06;;;;;;;8.80;4.50;;;;;;;27.37;51.47;98257.22;5391711;26;20055;-81
2022/06/06 05:55:52;;;;;;;9.85;4.30;;;;;;;28.34;47.14;98242.09;5391532;26;20469;-81
2022/06/06 05:58:50;;;;;;;8.35;4.15;;;;;;;28.87;46.02;98248.41;5391402;26;20075;-81
2022/06/06 06:01:54;;;;;;;6.62;3.53;;;;;;;29.93;43.46;98253.66;5391215;26;20138;-81
2022/06/06 06:04:40;;;;;;;8.60;3.78;;;;;;;28.11;45.18;98249.13;5371473;26;20044;-81
2022/06/06 06:07:19;;;;;;;8.23;3.97;;;;;;;27.48;48.46;98249.91;5391319;26;20432;-80
2022/06/06 06:10:11;;;;;;;8.23;4.03;;;;;;;26.54;51.24;98243.19;5391303;26;20569;-80
2022/06/06 06:12:43;;;;;;;8.18;4.05;;;;;;;26.78;51.57;98248.53;5391427;26;20102;-80
2022/06/06 06:15:37;;;;;;;9.40;4.22;;;;;;;26.66;51.92;98257.78;5391287;26;20047;-80
2022/06/06 06:18:40;;;;;;;10.35;3.97;;;;;;;27.00;51.91;98257.66;5371279;26;20459;-81
2022/06/06 06:21:22;;;;;;;8.35;4.00;;;;;;;26.56;53.47;98258.91;5335931;26;20123;-81
2022/06/06 06:23:59;;;;;;;7.62;4.05;;;;;;;27.20;51.77;98265.31;5391225;26;20126;-81
2022/06/06 06:26:29;;;;;;;7.32;3.78;;;;;;;28.04;49.13;98270.19;5391474;26;20048;-81
2022/06/06 06:28:59;;;;;;;7.68;3.80;;;;;;;28.22;45.63;98273.44;5371108;26;20116;-81
2022/06/06 06:31:55;;;;;;;6.55;3.42;;;;;;;29.27;44.45;98270.41;5371286;26;20068;-81
2022/06/06 06:35:03;;;;;;;6.05;3.40;;;;;;;29.67;41.11;98269.25;5391364;26;20061;-81
2022/06/06 06:37:51;;;;;;;7.72;3.42;;;;;;;29.68;40.38;98265.59;5391251;26;20040;-81
2022/06/06 06:41:17;;;;;;;7.32;3.60;;;;;;;30.17;39.76;98283.69;5390594;26;20091;-81
2022/06/06 06:43:53;;;;;;;7.00;3.50;;;;;;;29.60;40.60;98277.13;5276932;27;20117;-81
2022/06/06 06:46:51;;;;;;;7.95;3.90;;;;;;;29.20;41.73;98266.81;5375939;26;20127;-81
2022/06/06 06:49:29;;;;;;;7.70;3.80;;;;;;;29.69;41.41;98282.34;5386887;26;20397;-81
2022/06/06 06:52:34;;;;;;;7.20;3.70;;;;;;;29.63;41.67;98281.25;5371364;26;20107;-81
2022/06/06 06:55:10;;;;;;;6.90;3.67;;;;;;;28.85;43.75;98290.25;5321325;27;20123;-81
2022/06/06 06:57:48;;;;;;;8.05;4.07;;;;;;;28.83;44.66;98283.47;5361712;26;20059;-81
2022/06/06 07:00:23;;;;;;;9.15;4.30;;;;;;;29.26;44.20;98292.66;5390958;26;20048;-81
2022/06/06 07:09:44;;;;;;;8.25;3.95;;;;;;;29.52;42.54;98293.13;5390722;26;20063;-81
2022/06/06 07:12:45;;;;;;;9.32;3.97;;;;;;;29.33;42.62;98291.75;5371113;26;20063;-81
2022/06/06 07:15:21;;;;;;;7.50;3.78;;;;;;;28.21;44.67;98297.50;5391062;26;20384;-81
2022/06/06 07:17:54;;;;;;;7.62;3.85;;;;;;;29.21;43.16;98295.03;5370680;26;20120;-81
2022/06/06 07:20:22;;;;;;;8.23;3.75;;;;;;;29.45;42.63;98297.47;5370864;26;20123;-81
2022/06/06 07:23:04;;;;;;;10.25;3.90;;;;;;;29.08;43.33;98292.97;5370889;26;20085;-81
2022/06/06 07:25:46;;;;;;;7.95;4.18;;;;;;;29.42;41.04;98291.69;5371749;26;20454;-81
2022/06/06 07:28:18;;;;;;;6.62;3.50;;;;;;;29.91;41.79;98298.25;5391046;26;20115;-81
2022/06/06 07:31:14;;;;;;;7.28;3.80;;;;;;;29.67;40.93;98286.03;5390809;26;20131;-81
2022/06/06 07:34:21;;;;;;;9.05;3.80;;;;;;;30.06;41.08;98295.63;5371045;26;20093;-81
2022/06/06 07:37:07;;;;;;;9.18;3.95;;;;;;;29.53;41.66;98289.47;5370815;26;20131;-81
2022/06/06 07:39:40;;;;;;;7.72;3.92;;;;;;;29.56;41.71;98298.91;5370429;26;20055;-81
2022/06/06 07:42:31;;;;;;;6.95;3.70;;;;;;;28.35;41.52;98299.47;5391027;26;20106;-81
2022/06/06 07:45:12;;;;;;;7.68;4.00;;;;;;;29.01;42.44;98292.84;5391932;26;20084;-80
2022/06/06 07:48:00;;;;;;;6.07;3.30;;;;;;;29.99;40.52;98297.34;5391418;26;20428;-81
2022/06/06 07:50:40;;;;;;;8.65;3.60;;;;;;;30.44;38.37;98298.19;5390652;26;20060;-81
2022/06/06 07:53:21;;;;;;;6.90;3.87;;;;;;;29.65;39.31;98284.53;5391495;26;20389;-81
2022/06/06 07:55:51;;;;;;;8.07;3.78;;;;;;;30.90;37.76;98288.09;5391871;26;20054;-81
2022/06/06 07:58:23;;;;;;;8.50;3.35;;;;;;;31.18;36.63;98288.16;5391769;26;20083;-81
2022/06/06 08:01:09;;;;;;;6.40;3.53;;;;;;;31.55;36.06;98292.41;5371405;26;20110;-81
2022/06/06 08:04:06;;;;;;;8.18;3.20;;;;;;;31.07;36.31;98291.34;5391780;26;20155;-81
2022/06/06 08:06:39;;;;;;;5.18;2.90;;;;;;;29.94;36.52;98278.44;5365388;26;20045;-81
2022/06/06 08:09:28;;;;;;;6.30;3.03;;;;;;;32.18;31.28;98287.94;5371607;26;20073;-81
2022/06/06 08:12:00;;;;;;;4.87;2.50;;;;;;;32.05;31.46;98284.38;5371887;26;20079;-81
2022/06/06 08:14:33;;;;;;;6.32;2.75;;;;;;;32.15;30.42;98280.31;5391580;26;20141;-81
2022/06/06 08:17:06;;;;;;;4.22;2.65;;;;;;;31.73;31.12;98283.94;5391673;26;20102;-81
2022/06/06 08:19:48;;;;;;;5.60;2.60;;;;;;;32.27;30.80;98279.75;5391580;26;20083;-81
2022/06/06 08:22:16;;;;;;;5.25;2.70;;;;;;;32.86;29.33;98268.50;5371604;26;20686;-81
2022/06/06 08:24:47;;;;;;;6.50;2.65;;;;;;;32.24;29.40;98270.31;5371564;26;20047;-81
2022/06/06 08:27:26;;;;;;;6.12;2.60;;;;;;;31.09;30.51;98263.47;5391561;26;20047;-81
2022/06/06 08:29:54;;;;;;;5.40;2.92;;;;;;;32.19;29.62;98272.72;5371434;26;20064;-81
2022/06/06 08:32:21;;;;;;;4.75;2.97;;;;;;;33.09;25.76;98274.34;5391845;26;20414;-81
2022/06/06 08:34:48;;;;;;;5.22;3.20;;;;;;;31.04;29.47;98270.37;5391664;26;20048;-81
2022/06/06 08:37:37;;;;;;;12.75;3.30;;;;;;;32.28;27.69;98278.75;5391772;26;20095;-81
2022/06/06 08:40:43;;;;;;;5.07;2.90;;;;;;;32.66;29.24;98279.13;5371450;26;20076;-81
2022/06/06 08:43:09;;;;;;;7.87;3.75;;;;;;;32.52;28.39;98275.56;5391574;26;20080;-81
2022/06/06 08:45:36;;;;;;;5.35;2.90;;;;;;;31.24;32.12;98268.75;5391654;26;20051;-81
2022/06/06 08:48:21;;;;;;;7.43;3.30;;;;;;;31.59;33.63;98272.34;5391640;26;20091;-81
2022/06/06 08:51:13;;;;;;;6.53;3.60;;;;;;;31.80;33.63;98270.69;5372370;26;20059;-81
2022/06/06 08:53:58;;;;;;;5.85;3.40;;;;;;;32.05;32.71;98271.03;5391844;26;20120;-81
2022/06/06 08:56:47;;;;;;;6.47;3.40;;;;;;;32.64;32.07;98271.28;5391349;26;20473;-82
2022/06/06 08:59:48;;;;;;;6.50;2.75;;;;;;;31.93;33.81;98268.91;5391388;26;20099;-81
2022/06/06 09:02:39;;;;;;;5.25;2.97;;;;;;;31.71;35.25;98269.97;5391712;26;20336;-81
2022/06/06 09:05:35;;;;;;;5.25;2.92;;;;;;;30.01;37.33;98271.37;5371560;26;20064;-81
2022/06/06 09:08:23;;;;;;;5.35;2.85;;;;;;;30.03;38.37;98268.53;5371334;26;20267;-81
2022/06/06 09:11:02;;;;;;;6.85;3.20;;;;;;;30.44;38.19;98263.56;5391232;26;20048;-81
2022/06/06 09:13:41;;;;;;;5.95;2.58;;;;;;;30.02;40.42;98269.53;5391670;26;20124;-80
2022/06/06 09:16:18;;;;;;;5.82;3.00;;;;;;;28.52;43.34;98258.59;5391375;26;20064;-80
2022/06/06 09:19:04;;;;;;;5.62;3.10;;;;;;;28.04;47.68;98254.28;5391103;26;20051;-80
2022/06/06 09:22:04;;;;;;;5.80;2.90;;;;;;;27.84;45.18;98253.00;5391751;26;20510;-80
2022/06/06 09:25:16;;;;;;;8.20;2.87;;;;;;;28.45;43.65;98247.00;5390997;26;20424;-80
2022/06/06 09:28:03;;;;;;;5.35;2.30;;;;;;;28.69;41.84;98251.34;5375674;26;20393;-80
2022/06/06 09:30:49;;;;;;;3.50;1.80;;;;;;;30.19;38.17;98258.53;5371367;26;20122;-80
2022/06/06 09:33:54;;;;;;;2.28;1.45;;;;;;;29.56;40.01;98254.56;5391696;26;20090;-80
2022/06/06 09:36:38;;;;;;;4.60;1.90;;;;;;;30.24;38.29;98252.69;5391587;26;20123;-81
2022/06/06 09:39:46;;;;;;;3.03;1.52;;;;;;;30.60;39.03;98247.34;5391037;26;20115;-81
2022/06/06 09:42:15;;;;;;;;;;;;;;;30.51;38.28;98248.47;5377092;26;20127;-81
2022/06/06 09:44:57;;;;;;;3.55;1.80;;;;;;;30.55;39.12;98249.78;5371465;26;19947;-81
2022/06/06 09:48:09;;;;;;;2.67;1.58;;;;;;;30.79;38.41;98248.63;5391647;26;20160;-81
2022/06/06 09:50:55;;;;;;;5.15;1.80;;;;;;;31.34;37.15;98242.59;5277493;27;20573;-81
2022/06/06 10:00:03;;;;;;;2.75;1.60;;;;;;;31.52;37.25;98249.31;5391202;26;20456;-80
2022/06/06 10:03:00;;;;;;;2.90;1.60;;;;;;;30.66;40.63;98244.00;5352805;26;20062;-80
2022/06/06 10:05:57;;;;;;;3.70;2.10;;;;;;;30.22;39.18;98241.41;5391530;26;20122;-80
2022/06/06 10:08:36;;;;;;;4.78;1.87;;;;;;;29.08;42.91;98243.31;5391283;26;20405;-80
2022/06/06 10:11:06;;;;;;;4.47;1.85;;;;;;;28.76;42.33;98238.22;5391331;26;20406;-80
2022/06/06 10:13:52;;;;;;;5.32;1.83;;;;;;;28.96;43.23;98236.78;5391181;26;20064;-80
2022/06/06 10:16:37;;;;;;;3.97;1.60;;;;;;;29.80;41.42;98228.72;5391195;26;20063;-80
2022/06/06 10:19:27;;;;;;;5.70;2.00;;;;;;;28.80;43.46;98234.19;5391207;26;20118;-80
2022/06/06 10:22:20;;;;;;;3.35;1.60;;;;;;;28.09;45.35;98233.41;5391130;26;20060;-80
2022/06/06 10:24:49;;;;;;;4.50;2.00;;;;;;;28.87;42.68;98234.31;5393042;26;20115;-81
2022/06/06 10:27:54;;;;;;;4.25;1.70;;;;;;;29.23;41.75;98230.06;5391684;26;20111;-80
2022/06/06 10:30:24;;;;;;;3.40;1.80;;;;;;;29.91;41.26;98237.06;5391247;26;20057;-81
2022/06/06 10:33:10;;;;;;;4.22;1.80;;;;;;;30.29;39.68;98226.31;5371478;26;20138;-81
2022/06/06 10:35:46;;;;;;;1.83;1.50;;;;;;;32.37;34.75;98230.34;5391034;26;20082;-81
2022/06/06 10:38:16;;;;;;;2.92;1.65;;;;;;;32.58;34.79;98229.38;5391213;26;20343;-81
2022/06/06 10:41:18;;;;;;;3.45;1.70;;;;;;;32.76;34.70;98226.16;5391037;26;20122;-81
2022/06/06 10:44:23;;;;;;;2.65;1.50;;;;;;;32.45;35.62;98224.84;5367134;26;20099;-81
2022/06/06 10:47:14;;;;;;;3.12;1.60;;;;;;;32.40;34.47;98226.44;5391252;26;20118;-81
2022/06/06 10:49:51;;;;;;;4.65;1.50;;;;;;;32.80;35.59;98222.84;5370500;26;20064;-81
2022/06/06 10:52:54;;;;;;;4.30;1.60;;;;;;;33.33;33.87;98217.56;5391367;26;20091;-81
2022/06/06 10:55:32;;;;;;;3.78;1.60;;;;;;;32.53;34.24;98221.12;5391169;26;20052;-81
2022/06/06 10:58:16;;;;;;;3.28;1.50;;;;;;;30.41;36.88;98210.69;5391069;26;20060;-81
2022/06/06 11:01:19;;;;;;;2.35;1.45;;;;;;;30.46;38.86;98216.28;5391142;26;20080;-81
2022/06/06 11:03:49;;;;;;;4.50;1.70;;;;;;;31.70;35.27;98219.50;5390962;26;20043;-81
2022/06/06 11:06:28;;;;;;;4.32;1.60;;;;;;;33.22;34.96;98210.16;5371074;26;20064;-81
2022/06/06 11:09:11;;;;;;;3.55;1.60;;;;;;;33.17;34.29;98211.81;5390865;26;20060;-81
2022/06/06 11:12:12;;;;;;;4.07;1.90;;;;;;;32.61;35.37;98218.28;5371127;26;20112;-81
2022/06/06 11:14:41;;;;;;;5.95;2.37;;;;;;;30.99;38.01;98215.00;5390933;26;20107;-81
2022/06/06 11:17:34;;;;;;;4.30;1.90;;;;;;;30.63;38.92;98215.06;5390552;26;20126;-80
2022/06/06 11:20:39;;;;;;;2.00;1.50;;;;;;;31.27;38.92;98215.09;5390962;26;20103;-80
2022/06/06 11:23:47;;;;;;;2.70;1.45;;;;;;;32.61;34.44;98209.44;5390781;26;20459;-81
2022/06/06 11:26:32;;;;;;;3.80;1.67;;;;;;;33.34;34.67;98208.50;5391282;26;20044;-81
2022/06/06 11:29:27;;;;;;;2.87;1.70;;;;;;;31.56;37.27;98210.56;5371869;26;20131;-81
2022/06/06 11:32:15;;;;;;;3.20;1.60;;;;;;;31.29;38.20;98210.37;5392163;26;20064;-81
2022/06/06 11:35:04;;;;;;;2.37;1.58;;;;;;;32.41;35.33;98207.53;5392170;26;20100;-81
2022/06/06 11:38:08;;;;;;;3.75;1.60;;;;;;;32.64;35.21;98207.19;5391749;26;20114;-81
2022/06/06 11:40:45;;;;;;;3.05;1.87;;;;;;;32.06;35.94;98196.09;5391863;26;20104;-81
2022/06/06 11:43:18;;;;;;;3.97;1.70;;;;;;;32.72;34.04;98198.16;5392060;26;20080;-81
2022/06/06 11:46:07;;;;;;;3.72;1.58;;;;;;;32.30;33.03;98193.94;5391554;26;20048;-81
2022/06/06 11:49:08;;;;;;;3.37;1.67;;;;;;;30.02;39.50;98189.72;5391939;26;20061;-81
2022/06/06 11:51:57;;;;;;;4.95;2.08;;;;;;;31.41;39.10;98196.53;5391546;26;20087;-81
2022/06/06 11:54:58;;;;;;;6.40;1.92;;;;;;;31.35;38.54;98193.59;5391882;26;20073;-81
2022/06/06 11:57:34;;;;;;;3.33;1.50;;;;;;;31.56;38.02;98200.72;5371790;26;20107;-81
2022/06/06 12:00:11;;;;;;;3.20;1.50;;;;;;;33.26;33.76;98184.66;5371589;26;20081;-81
2022/06/06 12:03:03;;;;;;;3.80;1.50;;;;;;;32.11;35.16;98190.16;5372266;26;20090;-81
2022/06/06 12:06:00;;;;;;;5.07;2.30;;;;;;;29.81;37.78;98183.31;5371694;26;20107;-81
2022/06/06 12:08:45;;;;;;;3.03;1.67;;;;;;;31.01;36.72;98185.50;5391772;26;20406;-81
2022/06/06 12:11:24;;;;;;;2.78;1.50;;;;;;;31.67;37.74;98180.66;5391801;26;20060;-81
2022/06/06 12:14:03;;;;;;;4.30;1.75;;;;;;;33.44;34.68;98186.72;5391578;26;20119;-81
2022/06/06 12:16:40;;;;;;;3.00;1.42;;;;;;;31.97;38.21;98173.25;5391609;26;20108;-80
2022/06/06 12:19:33;;;;;;;4.45;1.70;;;;;;;30.25;41.84;98179.81;5371348;26;20107;-80
2022/06/06 12:22:31;;;;;;;2.42;1.70;;;;;;;29.49;43.83;98170.41;5371828;26;20051;-80
2022/06/06 12:25:05;;;;;;;3.22;1.70;;;;;;;29.41;44.94;98173.94;5391867;26;20112;-80
2022/06/06 12:27:46;;;;;;;1.92;1.33;;;;;;;29.45;43.97;98177.03;5391603;26;20076;-80
2022/06/06 12:30:36;;;;;;;2.97;1.65;;;;;;;29.42;44.02;98175.56;5391718;26;20470;-80
2022/06/06 12:33:17;;;;;;;3.53;1.67;;;;;;;29.44;43.30;98176.22;5391707;26;20406;-80
2022/06/06 12:35:59;;;;;;;2.47;1.50;;;;;;;30.53;40.86;98178.06;5391920;26;20080;-80
2022/06/06 12:38:47;;;;;;;7.20;1.75;;;;;;;31.01;39.97;98164.19;5391154;26;20134;-80
2022/06/06 12:41:43;;;;;;;4.75;1.73;;;;;;;31.36;38.86;98173.09;5391593;26;20119;-80
2022/06/06 12:44:28;;;;;;;3.22;1.60;;;;;;;32.76;35.51;98162.03;5391741;26;20099;-81
2022/06/06 12:47:07;;;;;;;4.57;1.70;;;;;;;31.43;40.34;98163.31;5371825;26;20088;-81
2022/06/06 12:50:13;;;;;;;4.07;1.70;;;;;;;32.17;39.25;98160.81;5391539;26;20451;-81
2022/06/06 12:53:17;;;;;;;3.35;1.60;;;;;;;31.38;40.35;98160.41;5321810;27;20069;-81
2022/06/06 12:56:37;;;;;;;1.90;1.20;;;;;;;31.45;39.81;98161.25;5321748;27;20052;-81